Time;durP1;ratioP1;P1;durP2;ratioP2;P2;SDS_P1;SDS_P2;PMS_P1;PMS_P2;Temp;Humidity;BMP_temperature;BMP_pressure;BME280_temperature;BME280_humidity;BME280_pressure;Samples;Min_cycle;Max_cycle;Signal;HPM_P1;HPM_P2
2021/05/06 00:07:16;;;;;;;2.45;1.10;;;;;;;;;;4925767;29;20506;-70
2021/05/06 00:33:49;;;;;;;4.47;1.58;;;;;;;;;;4936346;29;20569;-70
2021/05/06 00:36:15;;;;;;;1.30;1.08;;;;;;;;;;4934951;29;20051;-70
2021/05/06 00:38:51;;;;;;;2.92;1.45;;;;;;;;;;4935173;29;20059;-70
2021/05/06 00:57:10;;;;;;;2.13;1.30;;;;;;;;;;4919054;29;20052;-70
2021/05/06 01:02:58;;;;;;;1.17;1.02;;;;;;;;;;4921490;29;20127;-69
2021/05/06 01:13:27;;;;;;;3.63;1.63;;;;;;;;;;4935888;29;20566;-69
2021/05/06 01:15:53;;;;;;;4.13;1.65;;;;;;;;;;4919639;29;20467;-69
2021/05/06 01:18:20;;;;;;;1.73;1.00;;;;;;;;;;4928092;29;20051;-70
2021/05/06 01:20:50;;;;;;;2.20;1.17;;;;;;;;;;4932012;29;20052;-69
2021/05/06 01:23:19;;;;;;;2.35;1.52;;;;;;;;;;4947197;29;20056;-70
2021/05/06 01:25:59;;;;;;;1.58;0.95;;;;;;;;;;4933666;29;20071;-69
2021/05/06 01:28:29;;;;;;;1.25;1.15;;;;;;;;;;4946921;29;20047;-70
2021/05/06 01:31:04;;;;;;;2.78;1.02;;;;;;;;;;4949897;29;20075;-70
2021/05/06 01:33:44;;;;;;;1.95;1.23;;;;;;;;;;4929320;29;20059;-69
2021/05/06 01:36:20;;;;;;;1.63;1.45;;;;;;;;;;4960935;29;20056;-70
2021/05/06 01:39:05;;;;;;;2.28;1.23;;;;;;;;;;4932895;29;20051;-70
2021/05/06 01:47:11;;;;;;;1.92;1.15;;;;;;;;;;4948742;29;20059;-70
2021/05/06 02:00:14;;;;;;;2.95;1.20;;;;;;;;;;4929210;29;20043;-70
2021/05/06 02:02:40;;;;;;;2.45;1.20;;;;;;;;;;4930747;29;20075;-70
2021/05/06 02:05:06;;;;;;;2.78;1.30;;;;;;;;;;4944093;29;20055;-70
2021/05/06 02:07:38;;;;;;;4.95;1.35;;;;;;;;;;4923551;29;20047;-70
2021/05/06 02:10:08;;;;;;;2.22;1.10;;;;;;;;;;4923608;29;20044;-70
2021/05/06 02:12:35;;;;;;;2.25;1.27;;;;;;;;;;4925097;29;20091;-70
2021/05/06 02:15:12;;;;;;;3.47;1.30;;;;;;;;;;4939326;29;20112;-70
2021/05/06 02:17:40;;;;;;;1.98;1.10;;;;;;;;;;4925405;29;20648;-69
2021/05/06 02:20:06;;;;;;;5.30;1.75;;;;;;;;;;4942340;29;20470;-70
2021/05/06 02:22:33;;;;;;;3.97;1.30;;;;;;;;;;4925641;29;20099;-69
2021/05/06 02:24:59;;;;;;;4.57;1.30;;;;;;;;;;4924468;29;20055;-70
2021/05/06 02:27:26;;;;;;;5.40;1.40;;;;;;;;;;4937866;29;20051;-70
2021/05/06 02:29:52;;;;;;;3.03;1.30;;;;;;;;;;4921343;29;20118;-70
2021/05/06 02:32:18;;;;;;;5.60;1.23;;;;;;;;;;4922450;29;20055;-70
2021/05/06 02:34:48;;;;;;;2.67;1.17;;;;;;;;;;4942854;29;20502;-69
2021/05/06 02:37:14;;;;;;;7.60;1.38;;;;;;;;;;4928336;29;20052;-69
2021/05/06 02:39:44;;;;;;;2.95;1.70;;;;;;;;;;4964543;29;20075;-69
2021/05/06 02:42:10;;;;;;;4.15;2.15;;;;;;;;;;4931009;29;20107;-70
2021/05/06 02:44:37;;;;;;;3.25;1.25;;;;;;;;;;4946375;29;20052;-69
2021/05/06 02:47:03;;;;;;;3.83;2.38;;;;;;;;;;4946903;29;20047;-69
2021/05/06 02:49:30;;;;;;;5.05;2.03;;;;;;;;;;4923858;29;20111;-69
2021/05/06 02:52:04;;;;;;;4.00;1.40;;;;;;;;;;4918356;29;20056;-70
2021/05/06 02:54:36;;;;;;;2.33;1.17;;;;;;;;;;4919858;29;20055;-69
2021/05/06 02:57:11;;;;;;;4.05;1.45;;;;;;;;;;4934456;29;20047;-70
2021/05/06 03:05:07;;;;;;;2.63;1.40;;;;;;;;;;4950504;29;20072;-70
2021/05/06 03:07:34;;;;;;;3.70;1.65;;;;;;;;;;4939439;29;20103;-70
2021/05/06 03:10:32;;;;;;;2.10;1.20;;;;;;;;;;4938964;29;20047;-70
2021/05/06 03:23:59;;;;;;;2.40;1.25;;;;;;;;;;4919048;29;20051;-70
2021/05/06 03:26:25;;;;;;;1.88;1.52;;;;;;;;;;4937286;29;20570;-70
2021/05/06 03:28:56;;;;;;;1.85;1.50;;;;;;;;;;4920857;29;20055;-70
2021/05/06 03:42:53;;;;;;;2.67;1.20;;;;;;;;;;4926287;29;20399;-70
2021/05/06 04:03:24;;;;;;;3.83;1.92;;;;;;;;;;4922422;29;20059;-70
2021/05/06 04:15:37;;;;;;;4.78;1.80;;;;;;;;;;4938423;29;20051;-70
2021/05/06 04:18:09;;;;;;;2.85;1.50;;;;;;;;;;4926815;29;20494;-70
2021/05/06 04:26:03;;;;;;;4.47;1.70;;;;;;;;;;4938164;29;20051;-70
2021/05/06 04:39:10;;;;;;;4.47;2.03;;;;;;;;;;4919656;29;20060;-70
2021/05/06 04:41:46;;;;;;;2.63;1.30;;;;;;;;;;4931270;23;20103;-72
2021/05/06 04:55:09;;;;;;;3.63;1.50;;;;;;;;;;4916943;29;20088;-72
2021/05/06 05:05:34;;;;;;;4.22;2.28;;;;;;;;;;4915769;29;20060;-72
2021/05/06 05:08:07;;;;;;;2.45;1.75;;;;;;;;;;4916907;29;20056;-72
2021/05/06 05:13:20;;;;;;;6.38;1.98;;;;;;;;;;4916842;29;19923;-73
2021/05/06 05:19:02;;;;;;;4.93;2.20;;;;;;;;;;4911903;29;20144;-72
2021/05/06 05:24:45;;;;;;;2.60;1.98;;;;;;;;;;4829289;29;20597;-72
2021/05/06 05:27:12;;;;;;;4.50;2.38;;;;;;;;;;4839354;29;20110;-72
2021/05/06 05:29:38;;;;;;;4.15;2.47;;;;;;;;;;4871609;29;20103;-72
2021/05/06 05:32:04;;;;;;;3.83;2.00;;;;;;;;;;4897467;29;20056;-72
2021/05/06 05:34:36;;;;;;;3.92;2.10;;;;;;;;;;4896446;29;20408;-72
2021/05/06 05:37:03;;;;;;;5.63;1.80;;;;;;;;;;4897361;29;20132;-72
2021/05/06 05:39:45;;;;;;;4.22;2.10;;;;;;;;;;4897411;29;20116;-74
2021/05/06 05:54:58;;;;;;;4.90;1.70;;;;;;;;;;4897119;29;20056;-75
2021/05/06 05:57:24;;;;;;;5.35;2.10;;;;;;;;;;4895877;29;20108;-74
2021/05/06 05:59:52;;;;;;;4.72;2.22;;;;;;;;;;4899110;29;20643;-73
2021/05/06 06:02:18;;;;;;;2.38;1.63;;;;;;;;;;4913921;29;20052;-75
2021/05/06 06:04:44;;;;;;;4.22;1.70;;;;;;;;;;4914182;29;20052;-75
2021/05/06 06:07:10;;;;;;;4.90;2.08;;;;;;;;;;4899248;29;20092;-74
2021/05/06 06:09:36;;;;;;;4.30;1.77;;;;;;;;;;4894974;29;20100;-75
2021/05/06 06:12:02;;;;;;;2.58;1.80;;;;;;;;;;4894296;29;20052;-75
2021/05/06 06:14:48;;;;;;;3.15;1.70;;;;;;;;;;4897707;29;20119;-75
2021/05/06 06:17:14;;;;;;;3.65;1.80;;;;;;;;;;4909422;29;20048;-75
2021/05/06 06:19:47;;;;;;;7.55;2.40;;;;;;;;;;4906996;29;20152;-75
2021/05/06 06:22:16;;;;;;;7.55;2.55;;;;;;;;;;4913900;29;20055;-75
2021/05/06 06:24:42;;;;;;;4.28;1.70;;;;;;;;;;4912111;29;20150;-75
2021/05/06 06:27:08;;;;;;;5.65;2.30;;;;;;;;;;4899149;29;20560;-75
2021/05/06 06:29:35;;;;;;;8.70;4.25;;;;;;;;;;4904506;29;20477;-74
2021/05/06 06:32:03;;;;;;;7.13;3.42;;;;;;;;;;4900185;29;20052;-74
2021/05/06 06:34:29;;;;;;;5.30;2.83;;;;;;;;;;4904119;29;20056;-74
2021/05/06 06:36:57;;;;;;;4.50;2.58;;;;;;;;;;4902415;29;20048;-76
2021/05/06 06:39:26;;;;;;;6.57;2.40;;;;;;;;;;4905698;29;20519;-74
2021/05/06 06:41:53;;;;;;;4.63;2.25;;;;;;;;;;4902527;29;20080;-75
2021/05/06 06:44:23;;;;;;;4.43;1.95;;;;;;;;;;4887851;29;20052;-73
2021/05/06 06:47:00;;;;;;;3.97;2.35;;;;;;;;;;4903331;29;20347;-74
2021/05/06 06:49:33;;;;;;;3.40;1.92;;;;;;;;;;4904289;29;20052;-73
2021/05/06 06:52:00;;;;;;;4.83;2.00;;;;;;;;;;4904042;29;20052;-74
2021/05/06 06:54:27;;;;;;;8.45;2.83;;;;;;;;;;4885516;29;20056;-75
2021/05/06 06:57:00;;;;;;;6.32;2.10;;;;;;;;;;4878082;29;20091;-74
2021/05/06 06:59:27;;;;;;;6.47;2.13;;;;;;;;;;4893234;29;20097;-75
2021/05/06 07:01:53;;;;;;;7.60;1.88;;;;;;;;;;4894085;29;20500;-75
2021/05/06 07:04:19;;;;;;;6.05;1.70;;;;;;;;;;4906460;29;20060;-76
2021/05/06 07:06:45;;;;;;;8.85;2.00;;;;;;;;;;4911521;29;20281;-75
2021/05/06 07:09:11;;;;;;;2.80;1.60;;;;;;;;;;4913363;29;20088;-75
2021/05/06 07:11:38;;;;;;;6.45;1.70;;;;;;;;;;4912953;29;20500;-75
2021/05/06 07:14:04;;;;;;;4.55;1.75;;;;;;;;;;4896155;29;20567;-75
2021/05/06 07:16:31;;;;;;;6.43;1.70;;;;;;;;;;4895314;29;20088;-74
2021/05/06 07:18:58;;;;;;;5.88;1.80;;;;;;;;;;4915008;29;20112;-79
2021/05/06 07:21:25;;;;;;;4.93;1.83;;;;;;;;;;4914808;29;20052;-74
2021/05/06 07:23:54;;;;;;;3.92;1.75;;;;;;;;;;4901059;29;20051;-73
2021/05/06 07:26:24;;;;;;;4.10;1.80;;;;;;;;;;4902457;29;20495;-73
2021/05/06 07:28:53;;;;;;;5.75;1.70;;;;;;;;;;4905511;29;20444;-73
2021/05/06 07:31:21;;;;;;;6.22;1.85;;;;;;;;;;4905161;29;20051;-76
2021/05/06 07:33:50;;;;;;;5.28;1.90;;;;;;;;;;4902627;29;20087;-76
2021/05/06 07:36:20;;;;;;;5.35;2.20;;;;;;;;;;4896130;29;20055;-76
2021/05/06 07:38:50;;;;;;;7.53;1.75;;;;;;;;;;4902768;29;20063;-75
2021/05/06 07:41:19;;;;;;;7.72;2.08;;;;;;;;;;4900624;29;20045;-75
2021/05/06 07:43:48;;;;;;;4.07;1.50;;;;;;;;;;4907481;29;20397;-77
2021/05/06 07:46:19;;;;;;;6.07;1.65;;;;;;;;;;4907051;29;20397;-76
2021/05/06 07:48:50;;;;;;;5.22;1.80;;;;;;;;;;4909060;29;20052;-75
2021/05/06 07:51:20;;;;;;;7.22;1.90;;;;;;;;;;4893277;29;20052;-76
2021/05/06 07:53:51;;;;;;;2.47;1.88;;;;;;;;;;4903715;29;20058;-75
2021/05/06 07:56:21;;;;;;;10.40;3.73;;;;;;;;;;4905639;29;20112;-75
2021/05/06 07:58:48;;;;;;;5.57;1.73;;;;;;;;;;4900986;29;20085;-76
2021/05/06 08:01:15;;;;;;;5.32;2.13;;;;;;;;;;4913656;29;20112;-76
2021/05/06 08:03:41;;;;;;;3.25;1.80;;;;;;;;;;4898112;29;20057;-75
2021/05/06 08:06:07;;;;;;;5.32;1.73;;;;;;;;;;4880186;29;20056;-76
2021/05/06 08:08:34;;;;;;;5.53;2.17;;;;;;;;;;4897108;29;20112;-76
2021/05/06 08:11:00;;;;;;;5.88;2.30;;;;;;;;;;4912119;29;20484;-76
2021/05/06 08:13:27;;;;;;;7.07;2.30;;;;;;;;;;4917784;29;20053;-76
2021/05/06 08:15:53;;;;;;;4.60;1.77;;;;;;;;;;4931879;29;20084;-76
2021/05/06 08:18:20;;;;;;;5.82;1.70;;;;;;;;;;4916619;29;20048;-75
2021/05/06 08:20:46;;;;;;;4.65;1.50;;;;;;;;;;4919963;29;20073;-75
2021/05/06 08:23:13;;;;;;;4.25;1.60;;;;;;;;;;4897650;29;20052;-75
2021/05/06 08:25:39;;;;;;;4.05;1.80;;;;;;;;;;4912620;29;20048;-77
2021/05/06 08:28:05;;;;;;;4.10;1.58;;;;;;;;;;4895208;29;20112;-76
2021/05/06 08:30:33;;;;;;;6.53;2.88;;;;;;;;;;4898562;29;20121;-76
2021/05/06 08:32:59;;;;;;;2.25;1.50;;;;;;;;;;4913214;29;20052;-76
2021/05/06 08:35:25;;;;;;;4.80;1.90;;;;;;;;;;4916076;29;20079;-76
2021/05/06 08:37:51;;;;;;;5.10;2.08;;;;;;;;;;4917346;29;20546;-76
2021/05/06 08:40:17;;;;;;;4.63;1.55;;;;;;;;;;4931854;29;20059;-76
2021/05/06 08:42:43;;;;;;;4.25;1.50;;;;;;;;;;4916117;29;20543;-75
2021/05/06 08:45:10;;;;;;;8.93;1.60;;;;;;;;;;4915917;29;20131;-76
2021/05/06 08:47:36;;;;;;;5.45;1.50;;;;;;;;;;4916996;29;20056;-76
2021/05/06 08:50:03;;;;;;;5.18;1.65;;;;;;;;;;4916936;29;20107;-75
2021/05/06 08:52:29;;;;;;;3.45;1.25;;;;;;;;;;4915839;29;20087;-76
2021/05/06 08:54:56;;;;;;;8.50;1.58;;;;;;;;;;4925131;29;20107;-76
2021/05/06 08:57:24;;;;;;;3.45;1.50;;;;;;;;;;4925482;29;20056;-74
2021/05/06 08:59:50;;;;;;;4.38;1.40;;;;;;;;;;4919670;29;20084;-75
2021/05/06 09:02:17;;;;;;;5.00;1.33;;;;;;;;;;4917173;29;20048;-76
2021/05/06 09:04:43;;;;;;;6.00;1.60;;;;;;;;;;4915744;29;20052;-76
2021/05/06 09:07:10;;;;;;;4.70;1.90;;;;;;;;;;4913645;29;20052;-75
2021/05/06 09:09:44;;;;;;;5.40;1.98;;;;;;;;;;4896744;29;20108;-75
2021/05/06 09:12:10;;;;;;;4.00;1.50;;;;;;;;;;4895869;29;20052;-77
2021/05/06 09:14:43;;;;;;;4.55;1.30;;;;;;;;;;4897832;29;20563;-75
2021/05/06 09:17:33;;;;;;;6.03;1.80;;;;;;;;;;4911221;29;20056;-75
2021/05/06 09:20:07;;;;;;;3.70;1.67;;;;;;;;;;4914957;29;20179;-75
2021/05/06 09:22:42;;;;;;;5.15;1.73;;;;;;;;;;4916491;29;20052;-75
2021/05/06 09:25:28;;;;;;;4.07;1.48;;;;;;;;;;4930702;29;20055;-75
2021/05/06 09:28:13;;;;;;;3.65;1.67;;;;;;;;;;4895917;29;20048;-75
2021/05/06 09:30:57;;;;;;;6.82;2.75;;;;;;;;;;4897223;29;20044;-75
2021/05/06 09:33:40;;;;;;;6.03;1.85;;;;;;;;;;4912120;29;20100;-73
2021/05/06 09:36:15;;;;;;;4.90;1.60;;;;;;;;;;4895311;29;20056;-77
2021/05/06 09:38:43;;;;;;;5.72;1.80;;;;;;;;;;4898317;29;20112;-74
2021/05/06 09:41:11;;;;;;;3.25;1.70;;;;;;;;;;4902322;29;20416;-75
2021/05/06 09:43:41;;;;;;;5.82;1.58;;;;;;;;;;4898174;29;20405;-79
2021/05/06 09:46:37;;;;;;;7.13;1.70;;;;;;;;;;4909778;29;20062;-77
2021/05/06 09:49:11;;;;;;;6.82;2.15;;;;;;;;;;4906381;29;20083;-76
2021/05/06 09:51:44;;;;;;;3.88;1.90;;;;;;;;;;4909678;29;20072;-78
2021/05/06 09:54:24;;;;;;;7.75;1.98;;;;;;;;;;4896323;29;20048;-78
2021/05/06 09:57:01;;;;;;;4.88;1.58;;;;;;;;;;4903807;29;20044;-74
2021/05/06 09:59:33;;;;;;;4.95;1.95;;;;;;;;;;4911123;29;20100;-75
2021/05/06 10:02:07;;;;;;;3.08;1.40;;;;;;;;;;4903463;29;20424;-74
2021/05/06 10:04:34;;;;;;;6.15;2.50;;;;;;;;;;4906589;29;20060;-75
2021/05/06 10:07:14;;;;;;;8.20;2.40;;;;;;;;;;4911887;29;20060;-76
2021/05/06 10:09:54;;;;;;;5.07;2.80;;;;;;;;;;4898425;29;20048;-74
2021/05/06 10:12:21;;;;;;;3.92;2.00;;;;;;;;;;4903064;29;20040;-76
2021/05/06 10:14:49;;;;;;;6.82;1.90;;;;;;;;;;4878624;29;20049;-76
2021/05/06 10:17:19;;;;;;;7.15;2.53;;;;;;;;;;4898124;29;20052;-76
2021/05/06 10:19:47;;;;;;;8.98;2.95;;;;;;;;;;4909543;29;20048;-73
2021/05/06 10:22:20;;;;;;;5.65;1.95;;;;;;;;;;4912220;29;20044;-80
2021/05/06 10:24:47;;;;;;;2.65;1.95;;;;;;;;;;4891426;29;20056;-73
2021/05/06 10:27:19;;;;;;;5.82;1.90;;;;;;;;;;4904529;29;20048;-77
2021/05/06 10:29:46;;;;;;;8.80;2.35;;;;;;;;;;4907553;29;20059;-79
2021/05/06 10:32:14;;;;;;;8.75;2.60;;;;;;;;;;4907325;29;20048;-76
2021/05/06 10:34:42;;;;;;;5.10;2.00;;;;;;;;;;4920135;29;20056;-75
2021/05/06 10:37:08;;;;;;;5.65;1.80;;;;;;;;;;4909588;29;20060;-77
2021/05/06 10:39:41;;;;;;;9.82;2.40;;;;;;;;;;4905643;29;20060;-76
2021/05/06 10:42:29;;;;;;;;;;;;;;;;;;4932488;23;20150;-69
2021/05/06 10:45:13;;;;;;;4.78;2.22;;;;;;;;;;4923138;29;19922;-70
2021/05/06 10:47:42;;;;;;;5.63;2.05;;;;;;;;;;4919554;29;20127;-70
2021/05/06 10:50:29;;;;;;;5.30;2.00;;;;;;;;;;4920433;29;20048;-70
2021/05/06 10:52:55;;;;;;;7.22;2.50;;;;;;;;;;4916283;29;20048;-71
2021/05/06 10:55:46;;;;;;;4.97;2.42;;;;;;;;;;4879442;29;20055;-72
2021/05/06 10:58:26;;;;;;;7.28;2.65;;;;;;;;;;4919677;29;20088;-72
2021/05/06 11:01:01;;;;;;;3.75;2.00;;;;;;;;;;4921200;29;20052;-72
2021/05/06 11:03:27;;;;;;;3.88;2.10;;;;;;;;;;4924579;29;20091;-73
2021/05/06 11:05:53;;;;;;;4.05;2.10;;;;;;;;;;4922487;29;20080;-73
2021/05/06 11:08:23;;;;;;;4.93;1.60;;;;;;;;;;4915662;29;20044;-73
2021/05/06 11:10:50;;;;;;;1.90;1.33;;;;;;;;;;4921409;29;20164;-72
2021/05/06 11:13:21;;;;;;;3.90;1.38;;;;;;;;;;4921322;29;20048;-71
2021/05/06 11:15:48;;;;;;;3.17;1.50;;;;;;;;;;4888140;29;20138;-71
2021/05/06 11:18:42;;;;;;;4.88;1.35;;;;;;;;;;4921216;29;20487;-68
2021/05/06 11:21:09;;;;;;;3.25;1.15;;;;;;;;;;4925928;29;20076;-71
2021/05/06 11:23:35;;;;;;;4.75;1.40;;;;;;;;;;4881506;29;20601;-70
2021/05/06 11:26:05;;;;;;;3.13;1.33;;;;;;;;;;4916536;29;20047;-71
2021/05/06 11:28:37;;;;;;;2.55;1.00;;;;;;;;;;4914050;29;20115;-72
2021/05/06 11:31:04;;;;;;;;;;;;;;;;;;4925932;29;20384;-74
2021/05/06 11:33:30;;;;;;;1.48;1.13;;;;;;;;;;4926411;29;19982;-74
2021/05/06 11:36:08;;;;;;;3.35;1.10;;;;;;;;;;4906242;29;20056;-76
2021/05/06 11:38:51;;;;;;;1.75;1.10;;;;;;;;;;4903358;29;20048;-73
2021/05/06 11:41:22;;;;;;;3.00;1.20;;;;;;;;;;4910605;29;20510;-73
2021/05/06 11:43:52;;;;;;;2.40;1.10;;;;;;;;;;4913364;29;20055;-72
2021/05/06 11:46:28;;;;;;;3.00;1.20;;;;;;;;;;4894060;29;20415;-75
2021/05/06 11:48:59;;;;;;;4.25;1.95;;;;;;;;;;4894050;29;20052;-73
2021/05/06 11:51:35;;;;;;;2.40;1.38;;;;;;;;;;4896261;29;20098;-73
2021/05/06 11:54:18;;;;;;;2.35;1.20;;;;;;;;;;4896248;29;20060;-73
2021/05/06 11:56:59;;;;;;;2.47;1.20;;;;;;;;;;4887344;29;20123;-73
2021/05/06 11:59:28;;;;;;;1.95;0.93;;;;;;;;;;4926772;29;20052;-73
2021/05/06 12:01:57;;;;;;;2.17;0.93;;;;;;;;;;4901727;29;20051;-74
2021/05/06 12:04:24;;;;;;;1.50;0.98;;;;;;;;;;4900872;29;20422;-72
2021/05/06 12:06:51;;;;;;;2.90;1.00;;;;;;;;;;4915700;29;20084;-71
2021/05/06 12:09:26;;;;;;;1.70;0.82;;;;;;;;;;4905311;29;20048;-72
2021/05/06 12:11:52;;;;;;;1.75;0.80;;;;;;;;;;4902829;29;20131;-72
2021/05/06 12:14:39;;;;;;;2.20;1.00;;;;;;;;;;4917687;29;20047;-70
2021/05/06 12:17:06;;;;;;;4.75;1.33;;;;;;;;;;4917449;29;20522;-72
2021/05/06 12:19:41;;;;;;;1.70;1.50;;;;;;;;;;4934482;29;20060;-77
2021/05/06 12:22:08;;;;;;;1.48;1.08;;;;;;;;;;4901570;29;20475;-76
2021/05/06 12:24:41;;;;;;;2.35;0.98;;;;;;;;;;4918018;29;20115;-72
2021/05/06 12:27:27;;;;;;;1.15;0.80;;;;;;;;;;4927984;29;20043;-73
2021/05/06 12:29:57;;;;;;;1.17;0.95;;;;;;;;;;4911168;29;20107;-73
2021/05/06 12:32:24;;;;;;;1.50;1.00;;;;;;;;;;4910027;29;20052;-73
2021/05/06 12:34:52;;;;;;;0.65;0.65;;;;;;;;;;4910877;29;20048;-73
2021/05/06 12:37:29;;;;;;;3.05;1.00;;;;;;;;;;4918097;29;20051;-76
2021/05/06 12:39:56;;;;;;;1.55;0.80;;;;;;;;;;4900388;29;20060;-79
2021/05/06 12:42:27;;;;;;;3.22;0.80;;;;;;;;;;4883385;29;20052;-76
2021/05/06 12:44:53;;;;;;;1.38;0.80;;;;;;;;;;4907623;29;20071;-74
2021/05/06 12:47:31;;;;;;;2.25;1.00;;;;;;;;;;4908875;29;20132;-74
2021/05/06 12:50:20;;;;;;;4.20;1.98;;;;;;;;;;4904917;29;20693;-73
2021/05/06 12:52:47;;;;;;;2.63;1.35;;;;;;;;;;4909203;29;20063;-74
2021/05/06 12:55:26;;;;;;;1.40;1.00;;;;;;;;;;4927091;29;20087;-73
2021/05/06 12:58:25;;;;;;;2.33;0.90;;;;;;;;;;4909433;29;20463;-72
2021/05/06 13:00:55;;;;;;;1.15;0.80;;;;;;;;;;4908164;29;20495;-71
2021/05/06 13:03:31;;;;;;;2.88;1.13;;;;;;;;;;4923391;29;20051;-70
2021/05/06 13:06:06;;;;;;;1.38;0.93;;;;;;;;;;4924513;29;20502;-72
2021/05/06 13:08:38;;;;;;;2.42;0.80;;;;;;;;;;4892592;29;20052;-71
2021/05/06 13:11:07;;;;;;;2.17;1.40;;;;;;;;;;4891916;29;20059;-73
2021/05/06 13:13:48;;;;;;;2.95;1.30;;;;;;;;;;4873771;29;20056;-68
2021/05/06 13:16:18;;;;;;;35.92;23.05;;;;;;;;;;4910866;29;20052;-71
2021/05/06 13:19:01;;;;;;;39.20;29.00;;;;;;;;;;4916143;29;20051;-71
2021/05/06 13:21:27;;;;;;;10.52;9.02;;;;;;;;;;4906088;29;20083;-69
2021/05/06 13:23:54;;;;;;;3.92;2.72;;;;;;;;;;4904913;29;20396;-71
2021/05/06 13:26:34;;;;;;;3.75;1.70;;;;;;;;;;4913901;29;20076;-72
2021/05/06 13:29:06;;;;;;;3.83;1.30;;;;;;;;;;4902337;29;20056;-70
2021/05/06 13:31:36;;;;;;;2.58;1.30;;;;;;;;;;4906226;29;20100;-65
2021/05/06 13:34:15;;;;;;;5.40;2.30;;;;;;;;;;4909316;29;20554;-66
2021/05/06 13:36:44;;;;;;;4.03;2.25;;;;;;;;;;4923494;29;20135;-67
2021/05/06 13:39:12;;;;;;;3.05;1.63;;;;;;;;;;4911766;29;20048;-67
2021/05/06 13:41:39;;;;;;;1.52;1.27;;;;;;;;;;4899536;29;20060;-66
2021/05/06 13:44:07;;;;;;;2.58;1.48;;;;;;;;;;4922972;29;20048;-67
2021/05/06 13:46:41;;;;;;;4.22;2.20;;;;;;;;;;4915810;29;20086;-67
2021/05/06 13:49:07;;;;;;;4.32;2.10;;;;;;;;;;4921423;29;20052;-72
2021/05/06 13:51:33;;;;;;;2.08;1.80;;;;;;;;;;4917127;29;20075;-71
2021/05/06 13:54:00;;;;;;;2.30;1.23;;;;;;;;;;4929311;29;20052;-70
2021/05/06 13:56:26;;;;;;;2.58;1.58;;;;;;;;;;4917737;29;20119;-69
2021/05/06 13:58:52;;;;;;;2.72;1.67;;;;;;;;;;4899082;29;20048;-69
2021/05/06 14:01:19;;;;;;;2.88;1.38;;;;;;;;;;4914755;29;20048;-69
2021/05/06 14:03:45;;;;;;;2.65;1.52;;;;;;;;;;4904533;29;20052;-69
2021/05/06 14:06:11;;;;;;;3.97;2.00;;;;;;;;;;4917083;29;20126;-71
2021/05/06 14:08:38;;;;;;;2.40;1.70;;;;;;;;;;4917638;29;20055;-69
2021/05/06 14:11:04;;;;;;;3.33;2.00;;;;;;;;;;4931537;29;20031;-72
2021/05/06 14:13:31;;;;;;;3.72;2.88;;;;;;;;;;4907609;29;20165;-70
2021/05/06 14:15:58;;;;;;;4.57;2.15;;;;;;;;;;4917876;29;20051;-70
2021/05/06 14:18:24;;;;;;;4.60;2.35;;;;;;;;;;4937614;29;20055;-69
2021/05/06 14:20:53;;;;;;;3.08;2.00;;;;;;;;;;4922561;29;20133;-70
2021/05/06 14:23:20;;;;;;;3.30;2.00;;;;;;;;;;4952329;29;20058;-70
2021/05/06 14:25:48;;;;;;;3.50;2.00;;;;;;;;;;4936603;29;20060;-70
2021/05/06 14:28:14;;;;;;;3.28;2.30;;;;;;;;;;4930619;29;20521;-69
2021/05/06 14:30:40;;;;;;;5.85;3.03;;;;;;;;;;4917191;29;20098;-71
2021/05/06 14:33:06;;;;;;;5.82;2.70;;;;;;;;;;4917828;29;20062;-70
2021/05/06 14:35:34;;;;;;;5.03;3.35;;;;;;;;;;4934387;29;20292;-69
2021/05/06 14:38:00;;;;;;;3.45;2.40;;;;;;;;;;4916949;29;20091;-69
2021/05/06 14:40:26;;;;;;;4.82;2.65;;;;;;;;;;4933122;29;20055;-68
2021/05/06 14:42:52;;;;;;;4.22;2.40;;;;;;;;;;4932530;29;20079;-69
2021/05/06 14:45:19;;;;;;;4.30;2.05;;;;;;;;;;4917257;29;20059;-70
2021/05/06 14:47:45;;;;;;;4.35;2.70;;;;;;;;;;4914659;29;20044;-68
2021/05/06 14:50:13;;;;;;;4.25;2.70;;;;;;;;;;4917391;29;20521;-68
2021/05/06 14:52:40;;;;;;;2.58;1.98;;;;;;;;;;4901888;29;20506;-67
2021/05/06 14:55:09;;;;;;;2.03;1.60;;;;;;;;;;4901725;29;20103;-70
2021/05/06 14:57:40;;;;;;;1.77;1.48;;;;;;;;;;4923298;29;20059;-71
2021/05/06 15:00:08;;;;;;;2.42;1.30;;;;;;;;;;4938313;29;20537;-73
2021/05/06 15:02:37;;;;;;;4.47;1.65;;;;;;;;;;4921564;29;20071;-71
2021/05/06 15:05:05;;;;;;;1.33;1.23;;;;;;;;;;4921855;29;20138;-70
2021/05/06 15:07:31;;;;;;;3.00;1.45;;;;;;;;;;4886624;29;20108;-70
2021/05/06 15:09:58;;;;;;;1.23;1.02;;;;;;;;;;4918718;29;20060;-71
2021/05/06 15:12:24;;;;;;;2.30;1.00;;;;;;;;;;4917760;29;20052;-69
2021/05/06 15:14:50;;;;;;;2.10;1.10;;;;;;;;;;4901412;29;20174;-70
2021/05/06 15:17:16;;;;;;;2.45;1.10;;;;;;;;;;4935225;29;20047;-70
2021/05/06 15:19:43;;;;;;;1.80;1.45;;;;;;;;;;4944582;29;20055;-69
2021/05/06 15:22:10;;;;;;;2.20;1.33;;;;;;;;;;4939337;29;20510;-69
2021/05/06 15:24:46;;;;;;;2.13;1.92;;;;;;;;;;4940966;29;20510;-71
2021/05/06 15:27:13;;;;;;;1.80;1.70;;;;;;;;;;4938362;29;20411;-71
2021/05/06 15:29:40;;;;;;;2.67;1.48;;;;;;;;;;4919922;29;20418;-71
2021/05/06 15:32:07;;;;;;;3.25;1.92;;;;;;;;;;4889266;29;20064;-68
2021/05/06 15:34:33;;;;;;;4.50;1.90;;;;;;;;;;4936837;29;20052;-71
2021/05/06 15:37:05;;;;;;;5.18;1.88;;;;;;;;;;4899038;29;20048;-70
2021/05/06 15:39:31;;;;;;;6.57;2.70;;;;;;;;;;4925428;29;20103;-69
2021/05/06 15:41:57;;;;;;;4.25;2.67;;;;;;;;;;4924410;29;20107;-73
2021/05/06 15:44:23;;;;;;;2.13;1.42;;;;;;;;;;4920482;29;20463;-69
2021/05/06 15:46:50;;;;;;;2.30;1.48;;;;;;;;;;4936423;29;20403;-69
2021/05/06 15:49:16;;;;;;;3.35;1.33;;;;;;;;;;4920238;29;20506;-70
2021/05/06 15:51:43;;;;;;;2.40;1.58;;;;;;;;;;4936637;29;20044;-70
2021/05/06 15:54:15;;;;;;;2.42;1.20;;;;;;;;;;4936807;29;20056;-70
2021/05/06 15:56:41;;;;;;;4.03;1.30;;;;;;;;;;4936673;29;20519;-70
2021/05/06 15:59:07;;;;;;;1.17;0.95;;;;;;;;;;4918053;29;20464;-73
2021/05/06 16:01:34;;;;;;;2.25;1.23;;;;;;;;;;4932231;29;20048;-67
2021/05/06 16:04:04;;;;;;;1.73;1.35;;;;;;;;;;4915289;29;20082;-67
2021/05/06 16:06:31;;;;;;;3.38;1.50;;;;;;;;;;4930570;29;20119;-67
2021/05/06 16:08:57;;;;;;;2.40;1.35;;;;;;;;;;4946612;29;20345;-67
2021/05/06 16:11:24;;;;;;;3.63;1.45;;;;;;;;;;4929483;29;20051;-69
2021/05/06 16:13:50;;;;;;;3.28;1.50;;;;;;;;;;4910757;29;20115;-67
2021/05/06 16:16:17;;;;;;;4.10;2.17;;;;;;;;;;4921380;29;20122;-69
2021/05/06 16:18:48;;;;;;;5.78;2.08;;;;;;;;;;4917792;29;20107;-70
2021/05/06 16:21:14;;;;;;;1.17;1.02;;;;;;;;;;4907214;29;20111;-70
2021/05/06 16:23:41;;;;;;;2.03;1.27;;;;;;;;;;4904163;29;20055;-69
2021/05/06 16:26:09;;;;;;;1.15;0.98;;;;;;;;;;4896826;29;20059;-69
2021/05/06 16:28:37;;;;;;;1.23;1.05;;;;;;;;;;4926075;29;20071;-69
2021/05/06 16:31:03;;;;;;;2.17;1.35;;;;;;;;;;4894568;29;20676;-69
2021/05/06 16:33:39;;;;;;;3.05;1.80;;;;;;;;;;4909070;29;20060;-69
2021/05/06 16:39:23;;;;;;;1.63;1.20;;;;;;;;;;4900364;29;20087;-69
2021/05/06 16:41:31;;;;;;;1.58;1.20;;;;;;;;;;4921902;29;20467;-69
2021/05/06 16:44:30;;;;;;;1.52;1.42;;;;;;;;;;4924585;29;20055;-70
2021/05/06 16:46:49;;;;;;;1.30;1.20;;;;;;;;;;4905183;29;20578;-70
2021/05/06 16:49:15;;;;;;;2.78;1.30;;;;;;;;;;4903065;29;20044;-69
2021/05/06 16:51:41;;;;;;;2.65;1.23;;;;;;;;;;4923690;29;20106;-69
2021/05/06 16:54:08;;;;;;;2.22;1.60;;;;;;;;;;4915572;29;20137;-69
2021/05/06 16:56:34;;;;;;;2.42;1.70;;;;;;;;;;4913574;29;20051;-69
2021/05/06 16:59:05;;;;;;;1.83;1.60;;;;;;;;;;4919570;29;20393;-70
2021/05/06 17:01:33;;;;;;;2.33;1.52;;;;;;;;;;4921069;29;20404;-69
2021/05/06 17:04:00;;;;;;;1.67;1.30;;;;;;;;;;4913062;29;20055;-70
2021/05/06 17:06:26;;;;;;;1.25;1.15;;;;;;;;;;4911669;29;20534;-68
2021/05/06 17:08:52;;;;;;;1.67;1.55;;;;;;;;;;4890380;29;20055;-72
2021/05/06 17:11:19;;;;;;;1.58;1.40;;;;;;;;;;4934353;29;20422;-72
2021/05/06 17:13:45;;;;;;;3.85;3.40;;;;;;;;;;4952682;29;20055;-72
2021/05/06 17:16:11;;;;;;;4.35;3.60;;;;;;;;;;4916425;29;20051;-71
2021/05/06 17:18:37;;;;;;;5.05;3.17;;;;;;;;;;4922544;29;20506;-70
2021/05/06 17:21:06;;;;;;;3.88;2.78;;;;;;;;;;4899731;29;20059;-71
2021/05/06 17:23:32;;;;;;;4.35;2.92;;;;;;;;;;4920055;29;20060;-71
2021/05/06 17:25:58;;;;;;;5.95;3.63;;;;;;;;;;4918371;29;20108;-72
2021/05/06 17:28:24;;;;;;;4.22;2.90;;;;;;;;;;4918427;29;20048;-71
2021/05/06 17:30:50;;;;;;;4.57;3.33;;;;;;;;;;4901301;29;20088;-68
2021/05/06 17:33:17;;;;;;;6.22;3.47;;;;;;;;;;4897808;29;20503;-69
2021/05/06 17:35:43;;;;;;;4.55;2.90;;;;;;;;;;4902761;29;20123;-69
2021/05/06 17:38:09;;;;;;;3.25;2.50;;;;;;;;;;4920759;29;20548;-70
2021/05/06 17:40:35;;;;;;;4.03;2.88;;;;;;;;;;4924366;29;20051;-70
2021/05/06 17:43:02;;;;;;;3.83;3.08;;;;;;;;;;4907822;29;20052;-70
2021/05/06 17:45:28;;;;;;;4.88;2.92;;;;;;;;;;4899982;29;20055;-71
2021/05/06 17:47:55;;;;;;;5.25;3.13;;;;;;;;;;4914055;29;20055;-72
2021/05/06 17:50:25;;;;;;;6.00;3.55;;;;;;;;;;4932450;29;20048;-71
2021/05/06 17:52:54;;;;;;;6.18;3.42;;;;;;;;;;4915284;29;20404;-71
2021/05/06 17:55:21;;;;;;;7.22;3.92;;;;;;;;;;4915753;29;20079;-71
2021/05/06 17:57:48;;;;;;;6.15;3.08;;;;;;;;;;4932323;29;20466;-70
2021/05/06 18:00:15;;;;;;;4.63;3.17;;;;;;;;;;4922174;29;20635;-69
2021/05/06 18:02:42;;;;;;;5.10;2.70;;;;;;;;;;4910677;29;20098;-69
2021/05/06 18:05:10;;;;;;;3.92;2.85;;;;;;;;;;4892350;29;20048;-69
2021/05/06 18:07:36;;;;;;;4.00;2.30;;;;;;;;;;4912372;29;20066;-70